MST,Max TemperatureF,Mean TemperatureF,Min TemperatureF,Max Dew PointF,MeanDew PointF,Min DewpointF,Max Humidity, Mean Humidity, Min Humidity, Max Sea Level PressureIn, Mean Sea Level PressureIn, Min Sea Level PressureIn, Max VisibilityMiles, Mean VisibilityMiles, Min VisibilityMiles, Max Wind SpeedMPH, Mean Wind SpeedMPH, Max Gust SpeedMPH,PrecipitationIn, CloudCover, Events, WindDirDegrees
2014-1-1,34,12,-10,16,-1,-14,91,72,53,30.62,30.50,30.38,10,10,8,13,5,14,0.00,1,,211
2014-1-2,24,4,-16,9,-4,-20,91,74,56,30.76,30.64,30.54,10,10,10,8,3,8,0.00,0,,242
2014-1-3,25,7,-12,9,-6,-18,95,73,50,30.58,30.33,30.16,10,7,0,10,2,12,0.00,1,Fog,314
2014-1-4,33,11,-12,24,-2,-16,88,69,50,30.19,29.98,29.69,10,8,0,30,9,38,T,4,Fog,342
2014-1-5,19,0,-20,-1,-11,-25,81,60,39,30.63,30.40,30.16,10,10,10,26,7,32,0.00,0,,230
2014-1-6,20,2,-17,1,-10,-22,83,63,43,30.78,30.67,30.52,10,10,10,14,6,15,0.00,0,,258
2014-1-7,17,1,-15,5,-7,-19,87,70,53,30.70,30.54,30.40,10,10,10,9,2,10,0.00,1,,281
2014-1-8,24,8,-9,14,1,-12,95,79,62,30.49,30.37,30.26,10,10,6,12,3,14,0.00,4,,268
2014-1-9,20,7,-6,11,1,-10,91,79,67,30.32,30.17,30.04,10,6,0,12,4,14,0.00,2,Fog,326
2014-1-10,31,13,-6,12,0,-10,95,71,46,30.28,30.01,29.78,10,7,0,15,6,20,0.00,3,Fog,265
2014-1-11,32,14,-4,19,6,-6,92,69,46,30.53,30.35,30.16,10,10,10,10,4,11,0.00,0,,179
2014-1-12,39,19,-2,25,11,-6,95,72,48,30.22,29.98,29.79,10,9,1,31,14,40,T,2,Snow,313
2014-1-13,31,13,-5,13,0,-9,86,65,43,30.51,30.43,30.29,10,10,10,12,5,15,0.00,0,,229
2014-1-14,36,15,-7,16,4,-10,87,65,43,30.66,30.57,30.44,10,10,10,20,8,24,0.00,0,,252
2014-1-15,33,15,-4,18,4,-8,88,68,47,30.65,30.54,30.43,10,10,10,15,5,16,0.00,0,,275
2014-1-16,35,14,-7,16,3,-11,87,69,50,30.64,30.51,30.40,10,10,10,10,4,14,0.00,0,,244
2014-1-17,32,13,-7,15,1,-10,87,67,47,30.69,30.52,30.42,10,10,10,12,4,12,0.00,0,,232
2014-1-18,36,14,-8,16,1,-12,91,69,47,30.69,30.55,30.24,10,10,7,10,3,12,0.00,0,,246
2014-1-19,29,11,-7,15,-3,-11,91,72,53,30.71,30.48,30.34,10,5,0,8,2,9,0.00,4,Fog,310
2014-1-20,27,9,-9,15,-2,-12,95,76,57,30.78,30.50,30.23,10,6,0,8,3,8,0.00,3,Fog,249
2014-1-21,29,10,-9,13,-5,-14,91,71,50,30.91,30.65,30.48,10,5,0,8,3,9,0.00,3,Fog,318
2014-1-22,21,5,-12,8,-7,-17,87,72,56,30.60,30.38,30.20,10,6,0,10,2,11,0.00,2,Fog,39
2014-1-23,25,9,-7,16,3,-10,91,80,68,30.74,30.48,30.29,10,7,0,9,5,10,T,5,Fog-Snow,239
2014-1-24,20,7,-7,11,0,-10,87,75,62,30.84,30.69,30.44,10,5,0,10,3,11,T,4,Fog-Snow,266
2014-1-25,30,11,-9,11,-3,-14,91,69,46,30.77,30.52,30.35,10,8,2,8,3,9,0.00,3,,8
2014-1-26,36,14,-8,16,3,-9,96,72,47,30.41,30.28,30.13,10,9,7,10,2,14,0.00,0,,265
2014-1-27,34,14,-6,18,4,-9,91,71,51,30.31,30.09,29.96,10,7,0,9,3,11,0.00,3,Fog,327
2014-1-28,32,15,-2,7,1,-7,87,57,27,30.40,30.25,30.06,10,10,10,14,6,17,0.00,0,,287
2014-1-29,34,12,-11,10,-1,-15,88,62,35,30.50,30.29,30.06,10,10,10,10,3,13,0.00,0,,272
2014-1-30,42,25,7,32,23,4,82,69,55,29.97,29.77,29.56,10,10,10,37,14,44,0.00,0,,221
2014-1-31,38,29,20,32,27,18,96,80,64,29.69,29.62,29.55,10,7,0,35,14,42,0.07,4,Fog-Snow,221